createdAt,value
2018-05-21T00:01:39.506Z,98834.27
2018-05-21T00:04:07.092Z,98838.40
2018-05-21T00:06:35.481Z,98838.54
2018-05-21T00:09:03.317Z,98840.15
2018-05-21T00:11:30.948Z,98843.44
2018-05-21T00:13:58.537Z,98836.12
2018-05-21T00:16:26.149Z,98842.67
2018-05-21T00:18:53.796Z,98839.33
2018-05-21T00:21:21.392Z,98836.53
2018-05-21T00:23:49.177Z,98834.53
2018-05-21T00:26:16.795Z,98838.66
2018-05-21T00:28:44.547Z,98835.56
2018-05-21T00:31:12.595Z,98835.04
2018-05-21T00:33:40.694Z,98840.32
2018-05-21T00:36:08.447Z,98833.52
2018-05-21T00:38:36.320Z,98834.88
2018-05-21T00:41:05.110Z,98832.42
2018-05-21T00:43:32.856Z,98824.22
2018-05-21T00:46:00.828Z,98827.40
2018-05-21T00:48:28.693Z,98825.19
2018-05-21T00:50:56.410Z,98823.95
2018-05-21T00:53:24.261Z,98824.41
2018-05-21T00:55:52.020Z,98830.52
2018-05-21T00:58:19.763Z,98826.87
2018-05-21T01:00:47.590Z,98830.22
2018-05-21T01:03:15.373Z,98833.92
2018-05-21T01:05:43.167Z,98832.13
2018-05-21T01:08:11.168Z,98827.09
2018-05-21T01:10:38.904Z,98824.26
2018-05-21T01:13:06.660Z,98822.16
2018-05-21T01:15:34.593Z,98821.42
2018-05-21T01:18:02.362Z,98819.84
2018-05-21T01:20:30.122Z,98820.05
2018-05-21T01:22:57.936Z,98823.62
2018-05-21T01:25:25.684Z,98822.68
2018-05-21T01:27:53.549Z,98828.56
2018-05-21T01:30:21.411Z,98812.28
2018-05-21T01:32:49.224Z,98815.75
2018-05-21T01:35:16.999Z,98817.22
2018-05-21T01:37:44.836Z,98825.23
2018-05-21T01:40:12.588Z,98823.02
2018-05-21T01:42:40.350Z,98822.18
2018-05-21T01:45:08.291Z,98819.66
2018-05-21T01:47:36.229Z,98818.86
2018-05-21T01:50:04.056Z,98819.20
2018-05-21T01:52:31.877Z,98825.07
2018-05-21T01:54:59.608Z,98814.91
2018-05-21T01:57:27.361Z,98818.38
2018-05-21T01:59:55.071Z,98812.63
2018-05-21T02:02:22.700Z,98821.13
2018-05-21T02:04:50.272Z,98823.14
2018-05-21T02:07:17.997Z,98824.33
2018-05-21T02:09:45.684Z,98827.48
2018-05-21T02:12:13.270Z,98831.92
2018-05-21T02:14:40.958Z,98830.76
2018-05-21T02:17:08.533Z,98840.00
2018-05-21T02:19:36.116Z,98832.78
2018-05-21T02:22:03.839Z,98838.86
2018-05-21T02:24:31.479Z,98832.39
2018-05-21T02:26:59.126Z,98837.11
2018-05-21T02:29:26.766Z,98834.91
2018-05-21T02:31:54.352Z,98836.28
2018-05-21T02:34:21.935Z,98830.41
2018-05-21T02:36:49.695Z,98824.88
2018-05-21T02:39:17.274Z,98833.36
2018-05-21T02:41:44.918Z,98828.53
2018-05-21T02:44:12.613Z,98837.78
2018-05-21T02:46:40.179Z,98839.16
2018-05-21T02:49:07.756Z,98832.86
2018-05-21T02:51:35.436Z,98834.22
2018-05-21T02:54:03.028Z,98840.70
2018-05-21T02:56:30.605Z,98837.45
2018-05-21T02:58:58.313Z,98835.89
2018-05-21T03:01:25.900Z,98842.37
2018-05-21T03:03:53.494Z,98841.53
2018-05-21T03:06:21.212Z,98840.60
2018-05-21T03:08:48.791Z,98841.76
2018-05-21T03:11:16.468Z,98840.51
2018-05-21T03:13:44.245Z,98834.41
2018-05-21T03:16:11.885Z,98831.91
2018-05-21T03:18:39.525Z,98834.95
2018-05-21T03:21:07.143Z,98838.12
2018-05-21T03:23:34.795Z,98835.06
2018-05-21T03:26:02.429Z,98841.06
2018-05-21T03:28:30.137Z,98849.03
2018-05-21T03:30:57.716Z,98844.28
2018-05-21T03:33:25.305Z,98847.73
2018-05-21T03:35:52.932Z,98845.86
2018-05-21T03:38:20.594Z,98845.96
2018-05-21T03:40:48.180Z,98847.12
2018-05-21T03:43:16.237Z,98846.92
2018-05-21T03:45:43.857Z,98853.61
2018-05-21T03:48:11.452Z,98854.88
2018-05-21T03:50:39.285Z,98850.15
2018-05-21T03:53:06.931Z,98850.23
2018-05-21T03:55:34.516Z,98850.43
2018-05-21T03:58:02.241Z,98852.92
2018-05-21T04:00:56.178Z,98853.81
2018-05-21T04:03:35.626Z,98849.88
2018-05-21T04:06:03.217Z,98853.42
2018-05-21T04:08:30.799Z,98859.14
2018-05-21T04:10:58.521Z,98856.38
2018-05-21T04:13:26.163Z,98859.44
2018-05-21T04:15:54.251Z,98856.95
2018-05-21T04:18:21.988Z,98855.27
2018-05-21T04:20:50.099Z,98855.04
2018-05-21T04:23:17.689Z,98860.48
2018-05-21T04:25:45.322Z,98866.69
2018-05-21T04:28:12.900Z,98865.59
2018-05-21T04:30:40.494Z,98872.55
2018-05-21T04:33:08.121Z,98866.48
2018-05-21T04:35:35.696Z,98865.45
2018-05-21T04:38:03.329Z,98867.47
2018-05-21T04:40:30.939Z,98871.19
2018-05-21T04:42:58.512Z,98873.47
2018-05-21T04:45:26.089Z,98869.91
2018-05-21T04:47:53.734Z,98876.38
2018-05-21T04:50:21.381Z,98880.78
2018-05-21T04:52:48.975Z,98877.75
2018-05-21T04:55:16.668Z,98880.42
2018-05-21T04:57:44.244Z,98880.61
2018-05-21T05:00:11.849Z,98877.34
2018-05-21T05:02:39.571Z,98884.02
2018-05-21T05:05:07.348Z,98880.06
2018-05-21T05:07:34.916Z,98881.64
2018-05-21T05:10:03.571Z,98883.47
2018-05-21T05:12:31.161Z,98885.89
2018-05-21T05:14:58.769Z,98886.75
2018-05-21T05:17:26.492Z,98886.53
2018-05-21T05:19:54.136Z,98884.44
2018-05-21T05:22:21.773Z,98881.77
2018-05-21T05:24:49.576Z,98879.61
2018-05-21T05:27:17.172Z,98885.36
2018-05-21T05:29:44.813Z,98892.89
2018-05-21T05:32:12.436Z,98889.62
2018-05-21T05:34:40.066Z,98889.98
2018-05-21T05:37:07.773Z,98883.03
2018-05-21T05:39:35.403Z,98882.55
2018-05-21T05:42:03.017Z,98884.86
2018-05-21T05:44:30.624Z,98891.41
2018-05-21T05:46:58.250Z,98892.53
2018-05-21T05:49:25.847Z,98892.93
2018-05-21T05:51:53.423Z,98891.42
2018-05-21T05:54:21.035Z,98892.36
2018-05-21T05:56:48.609Z,98898.22
2018-05-21T05:59:17.123Z,98895.61
2018-05-21T06:01:44.840Z,98903.27
2018-05-21T06:04:12.474Z,98902.31
2018-05-21T06:06:40.043Z,98897.68
2018-05-21T06:09:07.767Z,98901.45
2018-05-21T06:11:35.349Z,98905.45
2018-05-21T06:14:02.984Z,98909.52
2018-05-21T06:16:30.626Z,98901.26
2018-05-21T06:18:58.216Z,98904.44
2018-05-21T06:21:25.807Z,98902.48
2018-05-21T06:23:53.441Z,98901.52
2018-05-21T06:26:21.046Z,98903.48
2018-05-21T06:28:48.677Z,98906.58
2018-05-21T06:31:16.344Z,98909.05
2018-05-21T06:33:44.570Z,98909.22
2018-05-21T06:36:12.171Z,98914.02
2018-05-21T06:38:39.919Z,98906.10
2018-05-21T06:41:07.545Z,98909.38
2018-05-21T06:43:35.199Z,98919.86
2018-05-21T06:46:02.827Z,98913.55
2018-05-21T06:53:54.123Z,98911.28
2018-05-21T06:56:21.698Z,98913.91
2018-05-21T06:58:49.279Z,98908.64
2018-05-21T07:01:17.608Z,98907.29
2018-05-21T07:03:45.214Z,98904.20
2018-05-21T07:06:12.853Z,98903.55
2018-05-21T07:08:40.500Z,98910.06
2018-05-21T07:11:08.151Z,98910.10
2018-05-21T07:13:35.731Z,98906.88
2018-05-21T07:16:03.362Z,98910.61
2018-05-21T07:18:31.108Z,98916.23
2018-05-21T07:20:58.743Z,98909.34
2018-05-21T07:23:26.500Z,98907.12
2018-05-21T07:25:54.109Z,98913.15
2018-05-21T07:28:21.696Z,98914.42
2018-05-21T07:30:49.403Z,98911.09
2018-05-21T07:33:16.991Z,98910.67
2018-05-21T07:35:44.576Z,98907.91
2018-05-21T07:38:12.280Z,98901.59
2018-05-21T07:40:39.945Z,98903.05
2018-05-21T07:43:07.589Z,98911.41
2018-05-21T07:45:35.199Z,98902.14
2018-05-21T07:48:02.783Z,98915.31
2018-05-21T07:50:30.384Z,98913.44
2018-05-21T07:52:58.123Z,98909.05
2018-05-21T07:55:28.547Z,98910.87
2018-05-21T07:57:56.176Z,98917.52
2018-05-21T08:00:23.826Z,98911.28
2018-05-21T08:02:51.411Z,98904.77
2018-05-21T08:05:19.033Z,98914.88
2018-05-21T08:07:46.641Z,98917.38
2018-05-21T08:10:14.294Z,98910.85
2018-05-21T08:12:41.892Z,98920.24
2018-05-21T08:15:09.606Z,98916.81
2018-05-21T08:17:37.187Z,98908.94
2018-05-21T08:20:04.909Z,98921.98
2018-05-21T08:22:32.623Z,98919.39
2018-05-21T08:25:00.213Z,98919.34
2018-05-21T08:27:27.795Z,98913.12
2018-05-21T08:29:55.634Z,98911.63
2018-05-21T08:32:23.199Z,98914.81
2018-05-21T08:34:50.775Z,98914.17
2018-05-21T08:37:18.410Z,98919.98
2018-05-21T08:39:46.003Z,98912.05
2018-05-21T08:42:13.607Z,98909.30
2018-05-21T08:44:41.240Z,98917.38
2018-05-21T08:47:08.819Z,98907.35
2018-05-21T08:49:36.415Z,98909.76
2018-05-21T08:52:04.138Z,98911.83
2018-05-21T08:54:31.719Z,98905.27
2018-05-21T08:56:59.363Z,98900.53
2018-05-21T08:59:27.080Z,98896.27
2018-05-21T09:01:54.660Z,98898.36
2018-05-21T09:04:22.248Z,98904.37
2018-05-21T09:06:49.954Z,98895.61
2018-05-21T09:09:17.600Z,98893.66
2018-05-21T09:11:45.676Z,98894.46
2018-05-21T09:14:13.309Z,98898.85
2018-05-21T09:16:40.968Z,98899.88
2018-05-21T09:19:08.516Z,98900.37
2018-05-21T09:21:36.209Z,98892.34
2018-05-21T09:24:03.808Z,98888.37
2018-05-21T09:26:31.403Z,98887.96
2018-05-21T09:28:59.131Z,98882.13
2018-05-21T09:31:26.839Z,98881.45
2018-05-21T09:33:54.415Z,98874.25
2018-05-21T09:36:22.096Z,98875.20
2018-05-21T09:38:49.667Z,98873.51
2018-05-21T09:41:17.321Z,98875.00
2018-05-21T09:43:44.956Z,98867.52
2018-05-21T09:46:12.621Z,98863.61
2018-05-21T09:48:40.216Z,98866.41
2018-05-21T09:51:07.861Z,98870.75
2018-05-21T09:53:35.439Z,98863.09
2018-05-21T09:56:03.651Z,98862.36
2018-05-21T09:58:31.340Z,98857.06
2018-05-21T10:00:58.964Z,98857.20
2018-05-21T10:03:26.544Z,98853.75
2018-05-21T10:05:54.172Z,98849.85
2018-05-21T10:08:21.789Z,98854.41
2018-05-21T10:10:49.367Z,98850.44
2018-05-21T10:13:16.987Z,98852.54
2018-05-21T10:15:44.572Z,98851.27
2018-05-21T10:18:12.232Z,98852.61
2018-05-21T10:20:39.912Z,98844.44
2018-05-21T10:23:08.472Z,98845.26
2018-05-21T10:25:36.088Z,98840.47
2018-05-21T10:28:03.871Z,98841.18
2018-05-21T10:30:31.520Z,98839.67
2018-05-21T10:32:59.095Z,98835.30
2018-05-21T10:35:26.748Z,98826.06
2018-05-21T10:37:54.347Z,98825.91
2018-05-21T10:40:21.925Z,98821.80
2018-05-21T10:42:49.626Z,98821.39
2018-05-21T10:45:17.216Z,98821.45
2018-05-21T10:47:44.812Z,98817.03
2018-05-21T10:50:12.565Z,98827.74
2018-05-21T10:52:40.209Z,98815.55
2018-05-21T10:55:07.912Z,98808.16
2018-05-21T10:57:35.696Z,98810.16
2018-05-21T11:00:03.331Z,98809.26
2018-05-21T11:02:31.005Z,98810.32
2018-05-21T11:04:58.702Z,98808.52
2018-05-21T11:07:26.404Z,98810.61
2018-05-21T11:09:54.023Z,98805.47
2018-05-21T11:12:21.726Z,98807.84
2018-05-21T11:14:49.312Z,98807.69
2018-05-21T11:17:16.916Z,98807.06
2018-05-21T11:19:44.563Z,98804.84
2018-05-21T11:22:12.146Z,98809.62
2018-05-21T11:24:39.760Z,98803.67
2018-05-21T11:27:07.537Z,98806.15
2018-05-21T11:29:35.107Z,98808.11
2018-05-21T11:32:02.862Z,98801.58
2018-05-21T11:34:30.468Z,98794.44
2018-05-21T11:36:58.051Z,98797.84
2018-05-21T11:39:25.629Z,98803.98
2018-05-21T11:41:53.249Z,98801.58
2018-05-21T11:44:20.876Z,98798.62
2018-05-21T11:46:48.474Z,98792.90
2018-05-21T11:49:16.167Z,98785.83
2018-05-21T11:51:43.744Z,98782.55
2018-05-21T11:54:11.335Z,98781.62
2018-05-21T11:56:38.964Z,98777.81
2018-05-21T11:59:06.553Z,98776.06
2018-05-21T12:01:34.216Z,98768.14
2018-05-21T12:04:01.848Z,98772.34
2018-05-21T12:06:29.442Z,98758.21
2018-05-21T12:08:57.077Z,98760.41
2018-05-21T12:11:24.751Z,98753.20
2018-05-21T12:13:52.340Z,98744.09
2018-05-21T12:16:19.905Z,98747.80
2018-05-21T12:18:47.852Z,98744.88
2018-05-21T12:21:15.421Z,98740.73
2018-05-21T12:23:43.008Z,98740.38
2018-05-21T12:26:10.784Z,98742.16
2018-05-21T12:28:38.438Z,98745.61
2018-05-21T12:31:05.960Z,98737.59
2018-05-21T12:33:33.646Z,98739.16
2018-05-21T12:36:01.229Z,98741.22
2018-05-21T12:38:28.874Z,98748.31
2018-05-21T12:40:56.519Z,98741.61
2018-05-21T12:43:24.104Z,98743.20
2018-05-21T12:45:51.704Z,98747.34
2018-05-21T12:48:19.422Z,98737.67
2018-05-21T12:50:47.027Z,98745.22
2018-05-21T12:53:14.649Z,98738.02
2018-05-21T12:55:42.278Z,98731.54
2018-05-21T12:58:09.865Z,98723.84
2018-05-21T13:00:37.442Z,98716.94
2018-05-21T13:03:05.273Z,98725.02
2018-05-21T13:05:32.837Z,98725.69
2018-05-21T13:08:00.491Z,98724.92
2018-05-21T13:10:28.268Z,98726.88
2018-05-21T13:12:56.066Z,98723.66
2018-05-21T13:15:23.705Z,98716.13
2018-05-21T13:17:51.367Z,98717.86
2018-05-21T13:20:18.948Z,98715.53
2018-05-21T13:22:46.699Z,98718.33
2018-05-21T13:25:14.481Z,98719.36
2018-05-21T13:27:42.796Z,98708.96
2018-05-21T13:30:10.381Z,98697.37
2018-05-21T13:32:38.029Z,98695.02
2018-05-21T13:35:05.680Z,98695.41
2018-05-21T13:37:33.301Z,98688.97
2018-05-21T13:40:01.001Z,98692.96
2018-05-21T13:42:28.579Z,98694.42
2018-05-21T13:44:56.177Z,98689.63
2018-05-21T13:47:23.844Z,98692.55
2018-05-21T13:49:51.432Z,98684.38
2018-05-21T13:52:19.146Z,98694.06
2018-05-21T13:54:46.755Z,98684.91
2018-05-21T13:57:14.339Z,98688.80
2018-05-21T13:59:41.985Z,98687.98
2018-05-21T14:02:09.786Z,98695.75
2018-05-21T14:04:37.433Z,98688.11
2018-05-21T14:07:05.009Z,98687.98
2018-05-21T14:09:32.629Z,98688.42
2018-05-21T14:12:00.273Z,98682.98
2018-05-21T14:14:27.853Z,98683.11
2018-05-21T14:16:55.595Z,98686.94
2018-05-21T14:19:23.244Z,98684.20
2018-05-21T14:21:50.817Z,98681.16
2018-05-21T14:24:19.304Z,98685.84
2018-05-21T14:26:47.037Z,98688.29
2018-05-21T14:29:14.631Z,98686.11
2018-05-21T14:31:42.360Z,98686.20
2018-05-21T14:34:09.937Z,98699.79
2018-05-21T14:36:37.574Z,98695.91
2018-05-21T14:39:06.164Z,98697.28
2018-05-21T14:41:33.752Z,98693.84
2018-05-21T14:44:01.319Z,98706.41
2018-05-21T14:46:29.066Z,98700.17
2018-05-21T14:48:56.681Z,98701.42
2018-05-21T14:51:24.259Z,98694.90
2018-05-21T14:53:51.993Z,98694.39
2018-05-21T14:56:19.642Z,98702.29
2018-05-21T14:58:47.280Z,98698.56
2018-05-21T15:01:14.923Z,98691.75
2018-05-21T15:03:42.551Z,98689.63
2018-05-21T15:06:10.200Z,98694.93
2018-05-21T15:08:37.868Z,98702.34
2018-05-21T15:11:05.492Z,98694.77
2018-05-21T15:13:33.060Z,98700.33
2018-05-21T15:16:00.767Z,98688.53
2018-05-21T15:18:28.395Z,98690.84
2018-05-21T15:20:56.062Z,98695.38
2018-05-21T15:23:23.740Z,98692.12
2018-05-21T15:25:51.337Z,98695.05
2018-05-21T15:28:18.904Z,98692.64
2018-05-21T15:30:46.643Z,98679.93
2018-05-21T15:33:14.281Z,98683.83
2018-05-21T15:35:41.864Z,98687.79
2018-05-21T15:38:09.534Z,98673.86
2018-05-21T15:40:37.181Z,98685.69
2018-05-21T15:43:04.897Z,98684.48
2018-05-21T15:45:32.642Z,98692.22
2018-05-21T15:48:00.212Z,98691.48
2018-05-21T15:50:28.804Z,98696.64
2018-05-21T15:52:56.675Z,98705.02
2018-05-21T15:55:24.252Z,98698.06
2018-05-21T15:57:51.846Z,98695.77
2018-05-21T16:00:19.467Z,98699.73
2018-05-21T16:02:47.048Z,98697.09
2018-05-21T16:05:14.696Z,98696.25
2018-05-21T16:07:42.484Z,98689.75
2018-05-21T16:10:10.065Z,98698.95
2018-05-21T16:12:37.721Z,98705.75
2018-05-21T16:15:05.478Z,98695.77
2018-05-21T16:17:33.056Z,98688.47
2018-05-21T16:20:00.642Z,98696.88
2018-05-21T16:22:28.425Z,98701.02
2018-05-21T16:24:56.087Z,98706.27
2018-05-21T16:27:23.659Z,98709.59
2018-05-21T16:29:51.286Z,98710.17
2018-05-21T16:32:18.913Z,98716.38
2018-05-21T16:34:46.495Z,98711.13
2018-05-21T16:37:14.129Z,98713.05
2018-05-21T16:39:42.939Z,98718.10
2018-05-21T16:42:10.507Z,98720.94
2018-05-21T16:44:38.252Z,98729.08
2018-05-21T16:47:05.841Z,98738.79
2018-05-21T16:49:33.419Z,98749.28
2018-05-21T16:52:01.070Z,98740.27
2018-05-21T16:54:28.716Z,98747.56
2018-05-21T16:56:56.323Z,98744.90
2018-05-21T16:59:24.058Z,98748.02
2018-05-21T17:01:51.652Z,98750.02
2018-05-21T17:04:19.298Z,98752.05
2018-05-21T17:06:47.040Z,98750.98
2018-05-21T17:09:14.632Z,98758.22
2018-05-21T17:11:42.208Z,98767.81
2018-05-21T17:14:09.932Z,98768.63
2018-05-21T17:16:37.524Z,98771.41
2018-05-21T17:19:05.540Z,98768.17
2018-05-21T17:21:33.779Z,98775.56
2018-05-21T17:24:01.490Z,98780.94
2018-05-21T17:26:29.051Z,98781.55
2018-05-21T17:28:56.688Z,98786.41
2018-05-21T17:31:24.263Z,98794.52
2018-05-21T17:33:51.867Z,98792.31
2018-05-21T17:36:19.502Z,98796.55
2018-05-21T17:38:47.096Z,98799.70
2018-05-21T17:41:14.685Z,98798.04
2018-05-21T17:43:42.313Z,98802.69
2018-05-21T17:46:09.936Z,98800.12
2018-05-21T17:48:37.585Z,98799.30
2018-05-21T17:51:05.233Z,98809.98
2018-05-21T17:53:32.890Z,98809.72
2018-05-21T17:56:00.528Z,98809.42
2018-05-21T17:58:28.231Z,98810.44
2018-05-21T18:00:55.868Z,98815.45
2018-05-21T18:03:23.446Z,98812.80
2018-05-21T18:05:51.116Z,98828.22
2018-05-21T18:08:18.688Z,98827.12
2018-05-21T18:10:46.291Z,98831.36
2018-05-21T18:13:13.916Z,98834.77
2018-05-21T18:15:41.512Z,98834.95
2018-05-21T18:18:10.519Z,98831.90
2018-05-21T18:20:38.252Z,98833.10
2018-05-21T18:23:05.825Z,98838.60
2018-05-21T18:25:33.409Z,98845.48
2018-05-21T18:28:01.057Z,98848.02
2018-05-21T18:30:28.890Z,98845.81
2018-05-21T18:32:56.537Z,98853.52
2018-05-21T18:35:24.216Z,98858.30
2018-05-21T18:37:51.792Z,98858.34
2018-05-21T18:40:19.444Z,98868.55
2018-05-21T18:42:47.173Z,98877.74
2018-05-21T18:45:14.756Z,98879.69
2018-05-21T18:47:42.381Z,98882.36
2018-05-21T18:50:10.016Z,98880.44
2018-05-21T18:52:37.604Z,98890.83
2018-05-21T18:55:05.211Z,98891.81
2018-05-21T18:57:32.828Z,98892.77
2018-05-21T19:00:00.424Z,98898.56
2018-05-21T19:02:28.072Z,98902.73
2018-05-21T19:04:55.713Z,98912.30
2018-05-21T19:07:23.307Z,98908.34
2018-05-21T19:09:50.883Z,98908.69
2018-05-21T19:12:18.506Z,98913.59
2018-05-21T19:14:46.085Z,98909.55
2018-05-21T19:17:13.672Z,98916.91
2018-05-21T19:19:41.360Z,98911.73
2018-05-21T19:22:08.988Z,98910.81
2018-05-21T19:24:36.578Z,98916.28
2018-05-21T19:27:04.301Z,98924.06
2018-05-21T19:29:31.895Z,98927.31
2018-05-21T19:31:59.516Z,98933.20
2018-05-21T19:34:27.300Z,98924.58
2018-05-21T19:36:54.985Z,98922.38
2018-05-21T19:39:22.621Z,98925.87
2018-05-21T19:41:50.259Z,98922.41
2018-05-21T19:44:17.897Z,98928.19
2018-05-21T19:46:45.459Z,98926.97
2018-05-21T19:49:13.195Z,98921.53
2018-05-21T19:51:40.800Z,98919.87
2018-05-21T19:54:08.370Z,98925.65
2018-05-21T19:56:36.024Z,98930.17
2018-05-21T19:59:03.707Z,98924.75
2018-05-21T20:01:31.292Z,98925.16
2018-05-21T20:03:58.929Z,98925.08
2018-05-21T20:06:26.653Z,98926.36
2018-05-21T20:08:54.301Z,98926.32
2018-05-21T20:11:22.957Z,98929.58
2018-05-21T20:13:50.531Z,98929.88
2018-05-21T20:16:18.181Z,98932.48
2018-05-21T20:18:45.877Z,98926.63
2018-05-21T20:21:13.528Z,98923.27
2018-05-21T20:23:41.091Z,98921.25
2018-05-21T20:26:08.745Z,98915.19
2018-05-21T20:28:36.331Z,98901.42
2018-05-21T20:31:03.940Z,98908.19
2018-05-21T20:33:31.659Z,98909.97
2018-05-21T20:35:59.497Z,98915.31
2018-05-21T20:38:27.172Z,98920.19
2018-05-21T20:40:54.943Z,98910.23
2018-05-21T20:43:23.214Z,98906.32
2018-05-21T20:45:50.826Z,98906.52
2018-05-21T20:48:18.547Z,98911.55
2018-05-21T20:50:46.140Z,98919.20
2018-05-21T20:53:13.724Z,98920.37
2018-05-21T20:55:41.314Z,98916.27
2018-05-21T20:58:08.949Z,98915.29
2018-05-21T21:00:36.534Z,98911.63
2018-05-21T21:03:04.171Z,98908.47
2018-05-21T21:05:31.741Z,98900.17
2018-05-21T21:07:59.433Z,98898.53
2018-05-21T21:10:26.999Z,98900.72
2018-05-21T21:12:54.623Z,98902.87
2018-05-21T21:15:22.272Z,98907.20
2018-05-21T21:17:49.934Z,98905.55
2018-05-21T21:20:17.572Z,98903.33
2018-05-21T21:22:45.230Z,98896.56
2018-05-21T21:25:12.826Z,98904.77
2018-05-21T21:27:40.412Z,98914.51
2018-05-21T21:30:08.060Z,98906.76
2018-05-21T21:32:35.630Z,98913.58
2018-05-21T21:35:03.302Z,98914.44
2018-05-21T21:37:31.649Z,98926.20
2018-05-21T21:39:59.289Z,98925.87
2018-05-21T21:42:26.856Z,98923.14
2018-05-21T21:44:54.633Z,98934.66
2018-05-21T21:47:22.167Z,98931.95
2018-05-21T21:49:49.752Z,98930.05
2018-05-21T21:52:17.515Z,98934.84
2018-05-21T21:54:45.117Z,98931.58
2018-05-21T21:57:12.690Z,98927.70
2018-05-21T21:59:40.319Z,98934.84
2018-05-21T22:02:07.894Z,98937.35
2018-05-21T22:04:35.475Z,98940.08
2018-05-21T22:07:03.209Z,98937.53
2018-05-21T22:09:30.869Z,98937.55
2018-05-21T22:11:58.439Z,98928.52
2018-05-21T22:14:26.161Z,98934.07
2018-05-21T22:16:53.744Z,98938.06
2018-05-21T22:19:21.321Z,98944.88
2018-05-21T22:21:49.047Z,98938.78
2018-05-21T22:24:16.694Z,98936.88
2018-05-21T22:26:44.299Z,98930.67
2018-05-21T22:29:11.912Z,98935.31
2018-05-21T22:31:39.556Z,98933.87
2018-05-21T22:34:07.893Z,98935.81
2018-05-21T22:36:35.520Z,98929.22
2018-05-21T22:39:03.129Z,98934.56
2018-05-21T22:41:30.700Z,98928.78
2018-05-21T22:43:58.377Z,98922.81
2018-05-21T22:46:25.988Z,98928.04
2018-05-21T22:48:53.641Z,98923.45
2018-05-21T22:51:21.361Z,98920.63
2018-05-21T22:53:48.971Z,98919.91
2018-05-21T22:56:16.666Z,98920.12
2018-05-21T22:58:44.381Z,98921.70
2018-05-21T23:01:12.044Z,98914.31
2018-05-21T23:03:39.689Z,98916.78
2018-05-21T23:06:07.501Z,98919.61
2018-05-21T23:08:35.137Z,98917.27
2018-05-21T23:11:02.793Z,98922.44
2018-05-21T23:13:30.437Z,98920.53
2018-05-21T23:15:58.681Z,98922.44
2018-05-21T23:18:26.267Z,98925.69
2018-05-21T23:20:53.899Z,98921.70
2018-05-21T23:23:21.487Z,98921.09
2018-05-21T23:25:49.132Z,98923.70
2018-05-21T23:28:16.933Z,98929.36
2018-05-21T23:30:44.515Z,98928.31
2018-05-21T23:33:12.112Z,98916.02
2018-05-21T23:35:39.885Z,98912.78
2018-05-21T23:38:07.458Z,98916.11
2018-05-21T23:40:35.096Z,98912.55
2018-05-21T23:43:02.743Z,98907.93
2018-05-21T23:45:30.504Z,98908.77
2018-05-21T23:47:58.133Z,98904.76
2018-05-21T23:50:25.758Z,98897.43
2018-05-21T23:52:53.377Z,98893.02
2018-05-21T23:55:20.993Z,98893.77
2018-05-21T23:57:48.614Z,98885.86
